Latest Weather Observations for Neptune Island

IDS60801

Issued at 2:32 pm CDT Monday 22 December 2014 (issued every 30 minutes, with the page automatically refreshed every 10 minutes)

About weather observations | Map of weather stations | Latest weather observations for SA | Other Formats
Station Details ID: 018115 Name: NEPTUNE ISLAND Lat: -35.34 Lon: 136.12 Height: 32.0 m
Data from the previous 72 hours. | See also: Recent months at Neptune Island
Date/Time
CDT
Temp
°C
App
Temp
°C
Dew
Point
Rel
Hum
%
Delta-T
°C
Wind Press
QNH
hPa
Press
MSL
hPa
Rain
since 9 am
mm
Dir
 
Spd
km/h
Gust
km/h
Spd
kts
Gust
kts
22/02:30pm 17.5 14.7 16.4 93 0.7 ENE 26 32 14 17 1007.4 1007.4 6.4
22/02:00pm 17.3 14.0 16.0 92 0.8 ENE 28 35 15 19 1007.1 1007.1 6.2
22/01:30pm 17.4 15.6 16.1 92 0.8 ENE 20 24 11 13 1008.1 1008.1 6.2
22/01:00pm 17.5 16.0 16.2 92 0.8 ESE 19 20 10 11 1008.8 1008.8 5.8
22/12:30pm 18.0 16.5 16.7 92 0.8 ESE 20 26 11 14 1009.2 1009.2 5.6
22/12:00pm 17.4 14.9 16.1 92 0.8 ESE 24 28 13 15 1009.3 1009.3 4.4
22/11:30am 17.5 14.6 16.2 92 0.8 ESE 26 32 14 17 1009.0 1009.0 3.4
22/11:00am 17.2 13.0 15.7 91 0.9 SE 32 39 17 21 1008.8 1008.8 2.6
22/10:30am 17.1 13.5 15.3 89 1.1 SE 28 35 15 19 1009.1 1009.1 2.0
22/10:00am 17.4 13.0 15.2 87 1.3 SSE 32 35 17 19 1009.9 1009.9 0.4
22/09:30am 17.8 14.5 14.9 83 1.7 S 26 32 14 17 1009.9 1009.9 0.0
22/09:00am 17.7 15.1 14.8 83 1.7 S 22 28 12 15 1009.5 1009.5 0.2
22/08:30am 18.5 17.4 15.4 82 1.8 SW 15 17 8 9 1009.0 1009.0 0.2
22/08:00am 18.7 18.4 15.4 81 1.9 SW 11 17 6 9 1008.5 1008.5 0.2
22/07:30am 18.7 19.2 15.0 79 2.2 NNW 6 11 3 6 1007.9 1007.9 0.2
22/07:00am 18.4 17.1 14.7 79 2.1 NE 15 17 8 9 1008.0 1008.0 0.2
22/06:30am 18.2 15.8 14.3 78 2.3 ESE 20 26 11 14 1006.9 1006.9 0.2
22/06:00am 18.3 13.5 14.0 76 2.5 ESE 32 37 17 20 1006.2 1006.1 0.2
22/05:30am 18.0 14.2 13.7 76 2.5 SE 26 32 14 17 1006.6 1006.6 0.2
22/05:00am 18.0 13.9 13.9 77 2.3 SE 28 33 15 18 1006.8 1006.8 0.2
22/04:30am 17.9 13.4 14.8 82 1.8 ESE 32 41 17 22 1006.5 1006.5 0.2
22/04:00am 17.7 13.0 14.2 80 2.0 ESE 32 39 17 21 1007.0 1007.0 0.2
22/03:30am 17.6 12.7 13.7 78 2.2 ESE 32 39 17 21 1006.8 1006.8 0.2
22/03:00am 18.1 12.7 13.8 76 2.5 E 35 43 19 23 1006.8 1006.8 0.2
22/02:30am 17.8 12.1 14.1 79 2.1 E 37 44 20 24 1007.3 1007.3 0.2
22/02:00am 17.8 14.7 14.5 81 1.9 E 24 32 13 17 1008.4 1008.4 0.2
22/01:30am 17.6 15.4 14.3 81 1.9 E 19 26 10 14 1009.4 1009.4 0.2
22/01:00am 17.4 12.6 14.1 81 1.9 ESE 32 39 17 21 1009.0 1009.0 0.2
22/12:30am 17.4 12.6 14.1 81 1.9 ESE 32 39 17 21 1009.5 1009.5 0.2
22/12:00am 17.6 13.9 14.9 84 1.6 ESE 28 35 15 19 1009.6 1009.6 0.2
 
Date/Time
CDT
Temp
°C
App
Temp
°C
Dew
Point
Rel
Hum
%
Delta-T
°C
Wind Press
QNH
hPa
Press
MSL
hPa
Rain
since 9 am
mm
Dir
 
Spd
km/h
Gust
km/h
Spd
kts
Gust
kts
21/11:30pm 17.5 12.0 14.8 84 1.6 ESE 37 44 20 24 1010.3 1010.3 0.2
21/11:00pm 17.1 11.5 14.4 84 1.5 ESE 37 46 20 25 1010.4 1010.4 0.2
21/10:30pm 17.0 9.0 14.6 86 1.4 SE 50 61 27 33 1009.6 1009.6 0.2
21/10:00pm 16.8 9.5 14.4 86 1.4 SE 46 56 25 30 1011.2 1011.2 0.2
21/09:30pm 16.8 8.7 14.4 86 1.4 SSE 50 57 27 31 1011.8 1011.8 0.2
21/09:00pm 17.1 10.2 14.6 85 1.4 SSE 44 56 24 30 1011.9 1011.9 0.0
21/08:30pm 17.7 11.0 15.1 85 1.5 SSE 44 54 24 29 1011.8 1011.8 0.0
21/08:00pm 17.9 11.4 15.0 83 1.7 S 43 50 23 27 1011.7 1011.7 0.0
21/07:30pm 18.1 12.2 14.8 81 1.9 SSE 39 50 21 27 1010.9 1010.9 0.0
21/07:00pm 18.9 15.3 15.2 79 2.2 SSE 28 35 15 19 1010.0 1010.0 0.0
21/06:30pm 19.5 15.6 15.4 77 2.4 SSE 30 35 16 19 1009.2 1009.2 0.0
21/06:00pm 20.6 18.0 15.8 74 2.9 SE 24 28 13 15 1009.1 1009.1 0.0
21/05:30pm 20.3 16.4 15.5 74 2.9 SE 30 35 16 19 1008.5 1008.5 0.0
21/05:00pm 21.4 17.4 16.1 72 3.2 SE 32 39 17 21 1008.6 1008.6 0.0
21/04:30pm 21.0 16.8 15.8 72 3.1 SE 32 39 17 21 1009.3 1009.3 0.0
21/04:00pm 20.7 15.8 16.3 76 2.7 SSE 37 48 20 26 1009.3 1009.3 0.0
21/03:30pm 19.5 13.2 15.6 78 2.3 SSE 43 52 23 28 1009.3 1009.3 0.0
21/03:00pm 19.5 12.5 15.2 76 2.5 SSE 46 52 25 28 1009.5 1009.5 0.0
21/02:30pm 20.1 13.9 15.9 77 2.5 SSE 43 52 23 28 1009.9 1009.9 0.0
21/02:00pm 20.6 14.5 16.2 76 2.6 SSE 43 56 23 30 1010.3 1010.3 0.0
21/01:30pm 19.4 13.0 15.9 80 2.1 SSE 44 52 24 28 1010.8 1010.8 0.0
21/01:00pm 19.2 13.8 15.9 81 2.0 SSE 39 50 21 27 1011.1 1011.1 0.0
21/12:30pm 19.8 14.5 16.3 80 2.1 SSE 39 50 21 27 1011.3 1011.3 0.0
21/12:00pm 19.6 15.1 16.3 81 2.0 SSE 35 46 19 25 1011.5 1011.5 0.0
21/11:30am 19.3 13.9 16.0 81 2.0 SSE 39 48 21 26 1011.3 1011.3 0.0
21/11:00am 19.8 14.9 16.4 81 2.0 SSE 37 46 20 25 1011.5 1011.5 0.0
21/10:30am 19.5 15.0 16.3 82 1.9 SSE 35 44 19 24 1011.4 1011.4 0.0
21/10:00am 19.1 14.5 16.1 83 1.8 SSE 35 44 19 24 1011.2 1011.2 0.0
21/09:30am 19.2 15.2 16.2 83 1.8 SSE 32 39 17 21 1011.3 1011.3 0.0
21/09:00am 19.1 15.4 16.0 82 1.8 SSE 30 35 16 19 1011.5 1011.5 0.0
21/08:30am 18.8 16.3 16.2 85 1.6 SSE 24 28 13 15 1011.3 1011.3 0.0
21/08:00am 18.7 17.1 16.5 87 1.3 SSE 20 24 11 13 1011.0 1011.0 0.0
21/07:30am 18.6 17.2 16.6 88 1.2 SE 19 22 10 12 1010.5 1010.5 0.0
21/07:00am 18.4 18.2 16.6 89 1.1 SE 13 15 7 8 1010.3 1010.3 0.0
21/06:30am 17.8 16.6 16.1 90 1.0 E 17 20 9 11 1010.0 1010.0 0.0
21/06:00am 17.8 14.1 16.0 89 1.1 ENE 30 35 16 19 1009.3 1009.3 0.0
21/05:30am 17.8 14.1 16.0 89 1.1 ENE 30 35 16 19 1009.2 1009.2 0.0
21/05:00am 17.7 14.3 15.7 88 1.2 ENE 28 32 15 17 1009.5 1009.5 0.0
21/04:30am 17.7 14.6 15.5 87 1.3 ENE 26 32 14 17 1009.5 1009.5 0.0
21/04:00am 17.6 14.0 15.2 86 1.4 E 28 33 15 18 1009.5 1009.5 0.0
21/03:30am 17.6 13.9 15.0 85 1.5 ENE 28 32 15 17 1010.0 1010.0 0.0
21/03:00am 17.6 13.9 14.9 84 1.6 ENE 28 32 15 17 1010.3 1010.3 0.0
21/02:30am 17.6 14.2 14.7 83 1.7 ENE 26 32 14 17 1011.0 1011.0 0.0
21/02:00am 17.4 14.2 14.3 82 1.8 E 24 28 13 15 1011.4 1011.4 0.0
21/01:30am 17.4 14.5 14.1 81 1.9 E 22 28 12 15 1011.8 1011.8 0.0
21/01:00am 17.5 14.3 14.2 81 1.9 E 24 30 13 16 1012.0 1012.0 0.0
21/12:30am 17.7 14.1 14.2 80 2.0 E 26 33 14 18 1012.4 1012.4 0.0
21/12:00am 17.9 14.0 14.4 80 2.0 E 28 33 15 18 1012.6 1012.6 0.0
 
Date/Time
CDT
Temp
°C
App
Temp
°C
Dew
Point
Rel
Hum
%
Delta-T
°C
Wind Press
QNH
hPa
Press
MSL
hPa
Rain
since 9 am
mm
Dir
 
Spd
km/h
Gust
km/h
Spd
kts
Gust
kts
20/11:30pm 18.2 14.9 14.9 81 1.9 E 26 32 14 17 1012.2 1012.2 0.0
20/11:00pm 18.0 14.4 14.3 79 2.1 E 26 32 14 17 1012.1 1012.1 0.0
20/10:30pm 17.9 14.9 13.8 77 2.3 E 22 30 12 16 1012.5 1012.5 0.0
20/10:00pm 17.6 14.9 13.5 77 2.3 ESE 20 24 11 13 1012.9 1012.9 0.0
20/09:30pm 17.9 15.4 14.2 79 2.1 ESE 20 24 11 13 1013.2 1013.2 0.0
20/09:00pm 18.6 16.7 15.1 80 2.0 SE 19 24 10 13 1013.5 1013.5 0.0
20/08:30pm 18.4 16.0 14.5 78 2.3 SSE 20 24 11 13 1013.6 1013.6 0.0
20/08:00pm 18.3 14.6 14.0 76 2.5 SSE 26 28 14 15 1013.8 1013.8 0.0
20/07:30pm 18.8 14.8 14.1 74 2.7 S 28 33 15 18 1013.9 1013.9 0.0
20/07:00pm 19.0 15.0 14.1 73 2.8 SSE 28 32 15 17 1013.7 1013.7 0.0
20/06:30pm 19.1 14.1 13.3 69 3.3 SSE 32 35 17 19 1013.5 1013.5 0.0
20/06:00pm 19.4 15.9 13.3 68 3.5 SSE 24 30 13 16 1014.1 1014.1 0.0
20/05:30pm 19.8 16.5 12.8 64 4.0 SSE 22 28 12 15 1014.3 1014.3 0.0
20/05:00pm 20.2 17.3 12.9 63 4.1 SE 20 26 11 14 1014.7 1014.7 0.0
20/04:30pm 21.0 17.7 12.7 59 4.7 SE 22 28 12 15 1014.8 1014.8 0.0
20/04:00pm 20.6 17.5 12.1 58 4.8 SE 20 26 11 14 1015.3 1015.3 0.0
20/03:30pm 20.9 17.8 12.1 57 4.9 SE 20 24 11 13 1015.8 1015.7 0.0
20/03:00pm 20.5 17.3 11.4 56 5.0 SE 19 24 10 13 1016.0 1015.9 0.0
20/02:30pm 21.0 18.4 11.9 56 5.1 ESE 17 20 9 11 1016.6 1016.5 0.0
20/02:00pm 20.2 17.6 11.9 59 4.6 E 17 22 9 12 1017.1 1017.0 0.0
20/01:30pm 20.9 18.4 13.4 62 4.3 E 19 22 10 12 1017.4 1017.3 0.0
20/01:00pm 19.7 16.3 12.5 63 4.0 ENE 22 26 12 14 1017.7 1017.6 0.0
20/12:30pm 19.9 16.6 12.9 64 4.0 E 22 28 12 15 1018.0 1017.9 0.0
20/12:00pm 20.3 17.5 13.3 64 4.0 E 20 28 11 15 1018.3 1018.2 0.0
20/11:30am 20.9 18.3 13.8 64 4.1 ESE 20 24 11 13 1018.7 1018.6 0.0
20/11:00am 19.8 17.4 12.8 64 4.0 E 17 22 9 12 1018.8 1018.7 0.0
20/10:30am 18.9 17.2 12.4 66 3.6 E 13 19 7 10 1019.1 1019.0 0.0
20/10:00am 19.3 16.9 12.6 65 3.8 E 17 20 9 11 1019.1 1019.0 0.0
20/09:30am 18.6 16.1 12.4 67 3.4 E 17 20 9 11 1019.4 1019.3 0.0
20/09:00am 18.4 16.5 13.0 71 3.0 ENE 15 19 8 10 1019.5 1019.4 0.0
20/08:30am 18.2 16.3 13.1 72 2.9 ENE 15 19 8 10 1019.2 1019.1 0.0
20/08:00am 17.1 15.6 12.0 72 2.8 ENE 11 13 6 7 1019.3 1019.2 0.0
20/07:30am 17.0 15.6 12.1 73 2.7 ENE 11 15 6 8 1019.0 1018.9 0.0
20/07:00am 16.5 14.3 12.1 75 2.4 E 15 17 8 9 1018.6 1018.5 0.0
20/06:30am 15.5 12.7 11.3 76 2.2 E 17 19 9 10 1018.5 1018.4 0.0
20/06:00am 15.2 12.6 10.8 75 2.3 ENE 15 19 8 10 1018.5 1018.4 0.0
20/05:30am 14.8 12.4 10.2 74 2.4 ENE 13 17 7 9 1018.5 1018.4 0.0
20/05:00am 15.1 12.9 10.7 75 2.3 ENE 13 15 7 8 1018.5 1018.4 0.0
20/04:30am 15.5 13.4 11.1 75 2.3 ENE 13 17 7 9 1018.4 1018.3 0.0
20/04:00am 15.1 12.4 10.5 74 2.4 E 15 20 8 11 1018.0 1017.9 0.0
20/03:30am 15.2 12.1 10.4 73 2.5 E 17 20 9 11 1018.2 1018.1 0.0
20/03:00am 15.3 11.7 10.5 73 2.5 ESE 20 24 11 13 1018.1 1018.0 0.0
20/02:30am 15.4 11.4 10.6 73 2.5 ESE 22 28 12 15 1018.3 1018.2 0.0
20/02:00am 15.3 10.9 10.5 73 2.5 ESE 24 28 13 15 1018.7 1018.6 0.0
20/01:30am 15.4 11.0 10.4 72 2.6 ESE 24 28 13 15 1019.2 1019.1 0.0
20/01:00am 15.6 11.6 10.6 72 2.6 ESE 22 28 12 15 1019.7 1019.6 0.0
20/12:30am 15.9 12.0 10.7 71 2.8 SE 22 28 12 15 1019.9 1019.8 0.0
20/12:00am 15.9 11.9 10.4 70 2.9 SE 22 28 12 15 1020.2 1020.1 0.0
 
Date/Time
CDT
Temp
°C
App
Temp
°C
Dew
Point
Rel
Hum
%
Delta-T
°C
Wind Press
QNH
hPa
Press
MSL
hPa
Rain
since 9 am
mm
Dir
 
Spd
km/h
Gust
km/h
Spd
kts
Gust
kts
19/11:30pm 16.0 12.0 10.5 70 2.9 SSE 22 28 12 15 1020.5 1020.4 0.0
19/11:00pm 16.1 11.8 10.6 70 2.9 SSE 24 30 13 16 1020.7 1020.6 0.0
19/10:30pm 16.0 12.0 10.5 70 2.9 SSE 22 28 12 15 1020.9 1020.8 0.0
19/10:00pm 16.3 11.6 10.8 70 2.9 SSE 26 30 14 16 1020.7 1020.6 0.0
19/09:30pm 16.3 12.3 10.6 69 3.0 SSE 22 28 12 15 1020.9 1020.8 0.0
19/09:00pm 16.4 11.7 10.7 69 3.0 S 26 30 14 16 1020.6 1020.5 0.0
19/08:30pm 16.7 12.4 10.8 68 3.1 S 24 32 13 17 1020.6 1020.5 0.0
19/08:00pm 16.7 12.2 10.1 65 3.5 S 24 28 13 15 1020.7 1020.6 0.0
19/07:30pm 17.3 12.5 10.4 64 3.7 S 26 30 14 16 1020.6 1020.5 0.0
19/07:00pm 17.7 13.4 10.8 64 3.7 S 24 30 13 16 1020.5 1020.4 0.0
19/06:30pm 17.8 13.9 10.7 63 3.8 SSW 22 28 12 15 1020.7 1020.6 0.0
19/06:00pm 18.3 14.7 10.4 60 4.2 SSW 20 24 11 13 1020.5 1020.4 0.0
19/05:30pm 19.0 15.6 10.6 58 4.5 SSW 19 24 10 13 1020.6 1020.5 0.0
19/05:00pm 19.5 16.1 11.3 59 4.5 SSW 20 24 11 13 1020.7 1020.6 0.0
19/04:30pm 19.7 16.4 10.9 57 4.8 SSW 19 24 10 13 1020.8 1020.7 0.0
19/04:00pm 19.5 16.0 10.8 57 4.7 SW 20 26 11 14 1020.9 1020.8 0.0
19/03:30pm 19.1 15.3 9.9 55 4.9 SW 20 26 11 14 1021.2 1021.1 0.0
19/03:00pm 19.9 16.2 10.0 53 5.3 SW 20 22 11 12 1021.3 1021.2 0.0

Other Formats:

Comma delimited format used in spreadsheet applications
http://www.bom.gov.au/fwo/IDS60801/IDS60801.94804.axf

JavaScript Object Notation format (JSON) in row-major order
http://www.bom.gov.au/fwo/IDS60801/IDS60801.94804.json